createdAt,value
2022-12-25T00:01:25.098Z,11.05
2022-12-25T00:03:52.371Z,10.55
2022-12-25T00:06:19.336Z,17.42
2022-12-25T00:08:45.994Z,11.90
2022-12-25T00:11:15.580Z,15.43
2022-12-25T00:13:42.670Z,15.13
2022-12-25T00:16:19.390Z,15.77
2022-12-25T00:18:46.160Z,14.30
2022-12-25T00:21:12.799Z,16.23
2022-12-25T00:23:39.913Z,14.18
2022-12-25T00:26:08.525Z,9.77
2022-12-25T00:28:36.169Z,13.93
2022-12-25T00:31:11.577Z,11.00
2022-12-25T00:36:06.768Z,13.68
2022-12-25T00:38:34.576Z,12.73
2022-12-25T00:41:08.252Z,8.60
2022-12-25T00:43:34.807Z,11.82
2022-12-25T00:46:03.841Z,14.43
2022-12-25T00:48:31.166Z,11.55
2022-12-25T00:51:01.698Z,12.40
2022-12-25T00:53:28.986Z,13.57
2022-12-25T00:55:58.866Z,8.40
2022-12-25T00:58:26.847Z,6.93
2022-12-25T01:00:53.360Z,10.77
2022-12-25T01:03:20.104Z,9.80
2022-12-25T01:05:55.903Z,10.82
2022-12-25T01:08:22.390Z,15.80
2022-12-25T01:10:57.722Z,9.30
2022-12-25T01:13:25.187Z,7.10
2022-12-25T01:15:54.702Z,11.05
2022-12-25T01:18:23.463Z,10.10
2022-12-25T01:20:50.119Z,9.93
2022-12-25T01:23:16.972Z,8.85
2022-12-25T01:25:43.773Z,10.65
2022-12-25T01:28:10.337Z,11.10
2022-12-25T01:30:36.819Z,10.73
2022-12-25T01:33:04.480Z,9.45
2022-12-25T01:35:31.001Z,14.45
2022-12-25T01:37:57.514Z,6.55
2022-12-25T01:40:23.964Z,9.70
2022-12-25T01:42:50.496Z,8.52
2022-12-25T01:45:43.529Z,9.93
2022-12-25T01:48:14.664Z,8.77
2022-12-25T01:50:45.928Z,7.38
2022-12-25T01:53:12.752Z,9.90
2022-12-25T01:55:41.552Z,10.07
2022-12-25T01:58:08.189Z,7.75
2022-12-25T02:00:34.819Z,11.95
2022-12-25T02:03:01.491Z,9.82
2022-12-25T02:05:33.457Z,13.80
2022-12-25T02:08:06.292Z,8.63
2022-12-25T02:10:32.861Z,9.25
2022-12-25T02:13:00.607Z,10.52
2022-12-25T02:15:34.405Z,5.95
2022-12-25T02:18:16.140Z,7.50
2022-12-25T02:20:51.892Z,9.48
2022-12-25T02:23:40.031Z,7.22
2022-12-25T02:26:38.277Z,8.07
2022-12-25T02:29:32.966Z,8.10
2022-12-25T02:32:07.902Z,6.75
2022-12-25T02:34:47.439Z,11.15
2022-12-25T02:37:19.477Z,9.73
2022-12-25T02:40:04.441Z,7.72
2022-12-25T02:43:02.467Z,9.70
2022-12-25T02:45:59.565Z,7.88
2022-12-25T02:48:48.612Z,6.22
2022-12-25T02:51:36.286Z,7.30
2022-12-25T02:57:12.690Z,8.27
2022-12-25T03:00:01.617Z,8.30
2022-12-25T03:02:49.693Z,9.70
2022-12-25T03:05:40.588Z,7.65
2022-12-25T03:08:13.779Z,8.85
2022-12-25T03:11:04.963Z,7.78
2022-12-25T03:13:37.558Z,9.45
2022-12-25T03:16:23.006Z,7.18
2022-12-25T03:18:49.573Z,5.95
2022-12-25T03:21:34.708Z,11.18
2022-12-25T03:24:20.559Z,7.03
2022-12-25T03:26:55.923Z,6.70
2022-12-25T03:32:08.467Z,10.35
2022-12-25T03:35:03.431Z,6.68
2022-12-25T03:38:02.816Z,7.00
2022-12-25T03:40:58.054Z,8.90
2022-12-25T03:43:46.822Z,4.60
2022-12-25T03:46:35.653Z,8.88
2022-12-25T03:50:00.556Z,9.05
2022-12-25T03:52:47.133Z,11.52
2022-12-25T03:55:35.456Z,11.65
2022-12-25T03:58:20.462Z,11.55
2022-12-25T04:01:05.900Z,6.20
2022-12-25T04:03:50.705Z,6.82
2022-12-25T04:06:35.945Z,8.32
2022-12-25T04:09:20.800Z,10.80
2022-12-25T04:12:05.871Z,9.38
2022-12-25T04:14:50.797Z,7.28
2022-12-25T04:17:35.953Z,8.75
2022-12-25T04:20:21.157Z,6.20
2022-12-25T04:23:06.102Z,8.00
2022-12-25T04:25:50.988Z,5.82
2022-12-25T04:28:35.614Z,7.93
2022-12-25T04:31:20.763Z,5.60
2022-12-25T04:34:05.575Z,5.85
2022-12-25T04:36:32.015Z,6.72
2022-12-25T04:38:58.431Z,6.60
2022-12-25T04:41:24.845Z,8.15
2022-12-25T04:43:51.271Z,10.52
2022-12-25T04:46:17.720Z,6.07
2022-12-25T04:48:44.288Z,6.75
2022-12-25T04:51:11.971Z,7.95
2022-12-25T04:53:38.462Z,7.85
2022-12-25T04:56:05.625Z,6.22
2022-12-25T04:58:32.615Z,8.13
2022-12-25T05:01:01.176Z,9.77
2022-12-25T05:03:28.501Z,4.55
2022-12-25T05:05:55.402Z,7.28
2022-12-25T05:08:22.473Z,5.57
2022-12-25T05:10:49.265Z,8.02
2022-12-25T05:13:16.253Z,8.20
2022-12-25T05:15:43.463Z,6.28
2022-12-25T05:18:10.201Z,6.57
2022-12-25T05:20:40.305Z,9.18
2022-12-25T05:23:07.402Z,7.22
2022-12-25T05:25:33.881Z,6.18
2022-12-25T05:28:00.372Z,5.55
2022-12-25T05:30:26.814Z,7.32
2022-12-25T05:32:53.239Z,7.40
2022-12-25T05:35:19.671Z,3.22
2022-12-25T05:37:46.149Z,5.28
2022-12-25T05:40:12.779Z,5.47
2022-12-25T05:42:39.204Z,7.50
2022-12-25T05:45:06.597Z,5.97
2022-12-25T05:47:33.108Z,7.10
2022-12-25T05:49:59.674Z,8.00
2022-12-25T05:52:26.230Z,8.27
2022-12-25T05:54:52.656Z,5.55
2022-12-25T05:57:19.132Z,5.85
2022-12-25T05:59:45.642Z,9.13
2022-12-25T06:02:12.150Z,4.13
2022-12-25T06:04:38.709Z,8.20
2022-12-25T06:07:05.139Z,6.63
2022-12-25T06:09:31.564Z,8.18
2022-12-25T06:11:58.035Z,5.15
2022-12-25T06:14:25.070Z,5.55
2022-12-25T06:16:53.057Z,6.65
2022-12-25T06:19:20.639Z,7.35
2022-12-25T06:21:47.300Z,7.20
2022-12-25T06:24:20.853Z,9.23
2022-12-25T06:26:47.911Z,6.93
2022-12-25T06:29:14.627Z,8.27
2022-12-25T06:31:41.108Z,7.03
2022-12-25T06:34:08.424Z,6.38
2022-12-25T06:36:37.491Z,8.52
2022-12-25T06:39:04.264Z,5.63
2022-12-25T06:41:31.231Z,5.55
2022-12-25T06:43:59.458Z,5.55
2022-12-25T06:46:27.800Z,6.07
2022-12-25T06:48:54.621Z,6.97
2022-12-25T06:51:27.362Z,8.90
2022-12-25T06:53:54.688Z,8.52
2022-12-25T06:56:24.861Z,4.75
2022-12-25T06:58:54.276Z,6.13
2022-12-25T07:01:27.626Z,6.18
2022-12-25T07:04:00.263Z,4.53
2022-12-25T07:06:26.774Z,6.93
2022-12-25T07:08:53.294Z,6.45
2022-12-25T07:11:20.845Z,7.38
2022-12-25T07:13:47.691Z,5.28
2022-12-25T07:16:15.025Z,6.25
2022-12-25T07:18:41.606Z,6.15
2022-12-25T07:21:09.970Z,6.40
2022-12-25T07:23:36.537Z,8.40
2022-12-25T07:26:03.596Z,8.23
2022-12-25T07:28:31.135Z,9.25
2022-12-25T07:31:02.973Z,8.65
2022-12-25T07:33:29.759Z,4.43
2022-12-25T07:35:56.237Z,5.15
2022-12-25T07:38:22.707Z,3.88
2022-12-25T07:40:50.075Z,4.20
2022-12-25T07:43:16.779Z,4.50
2022-12-25T07:45:43.250Z,4.45
2022-12-25T07:48:16.312Z,7.10
2022-12-25T07:50:43.329Z,3.63
2022-12-25T07:53:09.837Z,3.38
2022-12-25T07:55:36.308Z,3.08
2022-12-25T07:58:02.783Z,4.75
2022-12-25T08:00:32.713Z,5.30
2022-12-25T08:02:59.930Z,7.38
2022-12-25T08:05:26.876Z,8.70
2022-12-25T08:07:57.728Z,5.55
2022-12-25T08:10:25.278Z,5.65
2022-12-25T08:12:52.046Z,4.65
2022-12-25T08:15:18.594Z,5.03
2022-12-25T08:17:45.159Z,3.90
2022-12-25T08:20:11.973Z,5.07
2022-12-25T08:22:38.487Z,6.88
2022-12-25T08:25:05.108Z,4.05
2022-12-25T08:27:31.578Z,2.85
2022-12-25T08:29:58.074Z,5.30
2022-12-25T08:32:24.557Z,4.15
2022-12-25T08:34:51.016Z,8.05
2022-12-25T08:37:17.603Z,8.55
2022-12-25T08:39:44.124Z,7.57
2022-12-25T08:42:10.565Z,4.88
2022-12-25T08:44:37.013Z,5.07
2022-12-25T08:47:03.524Z,4.15
2022-12-25T08:49:30.042Z,6.25
2022-12-25T08:51:56.735Z,5.80
2022-12-25T08:54:24.738Z,8.45
2022-12-25T08:56:51.198Z,5.80
2022-12-25T08:59:17.733Z,6.45
2022-12-25T09:01:44.276Z,8.85
2022-12-25T09:04:10.805Z,6.25
2022-12-25T09:06:37.250Z,9.35
2022-12-25T09:09:03.822Z,6.93
2022-12-25T09:11:30.267Z,6.53
2022-12-25T09:13:56.688Z,4.95
2022-12-25T09:16:23.497Z,7.68
2022-12-25T09:18:50.045Z,6.65
2022-12-25T09:21:17.433Z,7.05
2022-12-25T09:23:44.468Z,4.93
2022-12-25T09:26:14.272Z,6.07
2022-12-25T09:28:46.588Z,4.85
2022-12-25T09:31:17.061Z,9.43
2022-12-25T09:33:43.610Z,9.43
2022-12-25T09:36:11.021Z,5.03
2022-12-25T09:38:37.524Z,6.18
2022-12-25T09:41:22.470Z,4.32
2022-12-25T09:43:55.726Z,4.85
2022-12-25T09:46:33.178Z,6.07
2022-12-25T09:49:07.478Z,4.20
2022-12-25T09:51:39.598Z,3.75
2022-12-25T09:54:32.055Z,4.40
2022-12-25T09:56:58.602Z,6.22
2022-12-25T09:59:27.291Z,5.80
2022-12-25T10:02:01.953Z,6.47
2022-12-25T10:04:43.874Z,8.40
2022-12-25T10:07:32.253Z,10.02
2022-12-25T10:10:22.085Z,7.22
2022-12-25T10:13:10.748Z,5.75
2022-12-25T10:16:25.147Z,6.70
2022-12-25T10:18:51.578Z,8.32
2022-12-25T10:21:19.135Z,8.52
2022-12-25T10:23:59.682Z,5.93
2022-12-25T10:26:27.037Z,6.63
2022-12-25T10:29:13.737Z,8.40
2022-12-25T10:31:41.951Z,7.40
2022-12-25T10:34:12.819Z,6.38
2022-12-25T10:36:41.158Z,7.80
2022-12-25T10:39:07.905Z,7.60
2022-12-25T10:41:59.114Z,6.65
2022-12-25T10:44:25.858Z,5.88
2022-12-25T10:46:57.930Z,6.43
2022-12-25T10:49:29.934Z,6.32
2022-12-25T10:51:56.471Z,5.10
2022-12-25T10:54:24.599Z,5.75
2022-12-25T10:57:09.293Z,6.10
2022-12-25T10:59:43.015Z,4.75
2022-12-25T11:02:19.909Z,4.05
2022-12-25T11:04:47.019Z,5.90
2022-12-25T11:07:19.474Z,4.95
2022-12-25T11:09:51.826Z,5.63
2022-12-25T11:12:20.851Z,7.05
2022-12-25T11:14:55.299Z,7.57
2022-12-25T11:17:24.210Z,6.60
2022-12-25T11:19:59.482Z,4.60
2022-12-25T11:24:53.106Z,6.38
2022-12-25T11:27:29.162Z,4.20
2022-12-25T11:30:07.867Z,5.20
2022-12-25T11:33:00.934Z,5.03
2022-12-25T11:35:31.560Z,6.65
2022-12-25T11:37:58.114Z,6.00
2022-12-25T11:40:29.448Z,6.20
2022-12-25T11:43:19.827Z,4.70
2022-12-25T11:45:55.952Z,5.95
2022-12-25T11:48:28.291Z,7.13
2022-12-25T11:50:59.259Z,7.35
2022-12-25T11:53:34.971Z,7.47
2022-12-25T11:56:16.004Z,7.10
2022-12-25T11:58:47.070Z,6.63
2022-12-25T12:01:34.893Z,6.50
2022-12-25T12:04:03.626Z,7.88
2022-12-25T12:06:43.067Z,5.47
2022-12-25T12:09:34.493Z,7.85
2022-12-25T12:12:26.813Z,7.32
2022-12-25T12:15:08.967Z,6.30
2022-12-25T12:17:35.641Z,4.75
2022-12-25T12:20:13.805Z,5.38
2022-12-25T12:22:50.089Z,6.43
2022-12-25T12:25:18.767Z,5.75
2022-12-25T12:27:45.548Z,5.47
2022-12-25T12:30:38.608Z,5.95
2022-12-25T12:33:07.899Z,5.63
2022-12-25T12:35:39.830Z,5.53
2022-12-25T12:38:13.443Z,4.93
2022-12-25T12:40:44.257Z,7.53
2022-12-25T12:43:45.608Z,6.18
2022-12-25T12:46:28.032Z,5.97
2022-12-25T12:49:21.700Z,6.65
2022-12-25T12:51:48.283Z,9.20
2022-12-25T12:54:33.302Z,8.50
2022-12-25T12:56:59.776Z,8.60
2022-12-25T12:59:33.134Z,7.32
2022-12-25T13:02:37.330Z,6.55
2022-12-25T13:05:13.905Z,6.50
2022-12-25T13:07:58.825Z,5.30
2022-12-25T13:10:32.918Z,5.65
2022-12-25T13:13:12.711Z,7.38
2022-12-25T13:15:39.564Z,7.15
2022-12-25T13:18:09.904Z,6.03
2022-12-25T13:20:46.124Z,4.75
2022-12-25T13:23:24.498Z,5.38
2022-12-25T13:26:00.005Z,6.45
2022-12-25T13:28:35.264Z,7.25
2022-12-25T13:33:45.081Z,5.88
2022-12-25T13:36:13.601Z,6.82
2022-12-25T13:38:50.903Z,7.38
2022-12-25T13:41:45.258Z,9.27
2022-12-25T13:44:19.579Z,5.32
2022-12-25T13:46:46.449Z,8.15
2022-12-25T13:49:24.432Z,8.90
2022-12-25T13:51:51.538Z,6.70
2022-12-25T13:54:18.981Z,6.13
2022-12-25T13:56:50.469Z,6.45
2022-12-25T13:59:19.998Z,8.10
2022-12-25T14:01:47.685Z,7.75
2022-12-25T14:04:20.233Z,6.63
2022-12-25T14:06:48.524Z,6.57
2022-12-25T14:09:16.108Z,7.85
2022-12-25T14:11:48.269Z,7.28
2022-12-25T14:14:19.274Z,8.43
2022-12-25T14:16:50.148Z,6.97
2022-12-25T14:19:27.757Z,6.25
2022-12-25T14:22:00.110Z,8.90
2022-12-25T14:24:27.965Z,5.75
2022-12-25T14:27:00.533Z,7.28
2022-12-25T14:29:32.526Z,8.98
2022-12-25T14:32:00.570Z,7.35
2022-12-25T14:34:29.399Z,8.57
2022-12-25T14:36:56.647Z,7.10
2022-12-25T14:39:35.073Z,10.32
2022-12-25T14:42:12.067Z,7.30
2022-12-25T14:44:40.265Z,7.82
2022-12-25T14:47:15.722Z,10.52
2022-12-25T14:49:43.108Z,8.60
2022-12-25T14:52:42.178Z,7.00
2022-12-25T14:55:19.358Z,10.18
2022-12-25T14:57:50.108Z,10.10
2022-12-25T15:00:22.846Z,10.20
2022-12-25T15:02:51.479Z,7.53
2022-12-25T15:05:30.437Z,9.10
2022-12-25T15:08:02.562Z,7.70
2022-12-25T15:10:59.079Z,7.32
2022-12-25T15:13:18.536Z,10.60
2022-12-25T15:16:14.468Z,7.88
2022-12-25T15:18:44.133Z,10.00
2022-12-25T15:21:15.821Z,12.32
2022-12-25T15:23:42.459Z,10.13
2022-12-25T15:26:15.899Z,7.47
2022-12-25T15:28:42.492Z,8.48
2022-12-25T15:31:20.954Z,12.32
2022-12-25T15:33:48.572Z,11.30
2022-12-25T15:36:15.331Z,7.43
2022-12-25T15:38:41.835Z,8.43
2022-12-25T15:41:54.433Z,9.45
2022-12-25T15:44:21.340Z,10.18
2022-12-25T15:46:48.249Z,8.82
2022-12-25T15:49:16.198Z,8.18
2022-12-25T15:51:43.921Z,10.52
2022-12-25T15:54:11.196Z,8.70
2022-12-25T15:56:44.618Z,7.38
2022-12-25T15:59:16.263Z,8.18
2022-12-25T16:01:47.226Z,6.80
2022-12-25T16:04:14.025Z,7.03
2022-12-25T16:06:40.821Z,7.35
2022-12-25T16:09:09.031Z,7.53
2022-12-25T16:11:35.493Z,7.75
2022-12-25T16:14:01.972Z,8.05
2022-12-25T16:16:28.621Z,9.82
2022-12-25T16:18:55.111Z,7.55
2022-12-25T16:21:22.282Z,8.82
2022-12-25T16:23:49.043Z,9.25
2022-12-25T16:26:15.920Z,10.95
2022-12-25T16:28:42.483Z,9.02
2022-12-25T16:31:09.048Z,10.02
2022-12-25T16:33:35.580Z,7.45
2022-12-25T16:36:02.095Z,10.27
2022-12-25T16:38:28.590Z,9.93
2022-12-25T16:40:57.707Z,7.82
2022-12-25T16:43:24.571Z,8.32
2022-12-25T16:45:51.316Z,10.15
2022-12-25T16:48:17.917Z,10.23
2022-12-25T16:50:44.489Z,7.68
2022-12-25T16:53:12.421Z,11.27
2022-12-25T16:55:38.971Z,14.55
2022-12-25T16:58:06.356Z,10.32
2022-12-25T17:00:32.834Z,8.82
2022-12-25T17:03:00.730Z,9.27
2022-12-25T17:05:27.717Z,9.57
2022-12-25T17:07:54.229Z,10.40
2022-12-25T17:10:21.371Z,9.82
2022-12-25T17:12:48.177Z,10.05
2022-12-25T17:15:14.829Z,9.23
2022-12-25T17:17:41.737Z,11.13
2022-12-25T17:20:08.872Z,9.52
2022-12-25T17:22:35.373Z,9.52
2022-12-25T17:25:01.984Z,9.43
2022-12-25T17:27:28.580Z,9.65
2022-12-25T17:29:55.105Z,7.93
2022-12-25T17:32:21.626Z,10.27
2022-12-25T17:34:48.209Z,8.95
2022-12-25T17:37:14.754Z,8.02
2022-12-25T17:39:41.244Z,9.07
2022-12-25T17:42:07.741Z,7.45
2022-12-25T17:44:34.331Z,11.00
2022-12-25T17:47:00.841Z,8.75
2022-12-25T17:49:27.610Z,8.70
2022-12-25T17:51:54.309Z,11.57
2022-12-25T17:54:20.907Z,8.15
2022-12-25T17:56:47.992Z,11.20
2022-12-25T17:59:18.491Z,9.15
2022-12-25T18:01:46.848Z,8.18
2022-12-25T18:04:13.821Z,8.13
2022-12-25T18:06:40.576Z,10.85
2022-12-25T18:09:07.639Z,7.82
2022-12-25T18:11:37.647Z,9.23
2022-12-25T18:14:05.894Z,7.38
2022-12-25T18:16:34.739Z,8.52
2022-12-25T18:19:01.941Z,7.45
2022-12-25T18:21:28.984Z,10.05
2022-12-25T18:23:55.918Z,8.55
2022-12-25T18:26:23.253Z,10.93
2022-12-25T18:28:50.362Z,7.63
2022-12-25T18:31:20.861Z,7.63
2022-12-25T18:33:48.546Z,8.32
2022-12-25T18:36:18.124Z,7.95
2022-12-25T18:38:44.863Z,8.65
2022-12-25T18:41:11.920Z,9.32
2022-12-25T18:43:54.095Z,9.90
2022-12-25T18:46:24.205Z,8.60
2022-12-25T18:48:51.433Z,7.07
2022-12-25T18:51:18.038Z,10.80
2022-12-25T18:53:44.755Z,8.52
2022-12-25T18:56:15.606Z,10.68
2022-12-25T18:58:43.299Z,9.48
2022-12-25T19:01:20.167Z,7.65
2022-12-25T19:03:48.914Z,8.15
2022-12-25T19:06:21.580Z,6.95
2022-12-25T19:08:48.603Z,9.35
2022-12-25T19:11:39.076Z,7.47
2022-12-25T19:14:10.804Z,8.95
2022-12-25T19:16:37.440Z,7.63
2022-12-25T19:19:04.114Z,7.65
2022-12-25T19:21:30.693Z,7.72
2022-12-25T19:23:57.239Z,7.30
2022-12-25T19:26:23.710Z,8.73
2022-12-25T19:28:50.159Z,9.25
2022-12-25T19:31:16.786Z,9.75
2022-12-25T19:33:43.378Z,8.35
2022-12-25T19:36:12.814Z,10.32
2022-12-25T19:38:39.699Z,8.10
2022-12-25T19:41:14.875Z,10.25
2022-12-25T19:43:42.858Z,8.25
2022-12-25T19:46:17.791Z,7.88
2022-12-25T19:48:46.252Z,9.57
2022-12-25T19:51:23.306Z,10.23
2022-12-25T19:53:50.611Z,5.53
2022-12-25T19:56:17.344Z,7.80
2022-12-25T19:58:44.767Z,7.13
2022-12-25T20:01:17.565Z,5.78
2022-12-25T20:03:46.390Z,9.75
2022-12-25T20:06:19.906Z,6.10
2022-12-25T20:08:47.417Z,6.13
2022-12-25T20:11:14.140Z,6.97
2022-12-25T20:13:40.680Z,7.32
2022-12-25T20:16:09.086Z,8.00
2022-12-25T20:18:37.115Z,7.57
2022-12-25T20:21:06.702Z,6.00
2022-12-25T20:23:33.872Z,7.22
2022-12-25T20:26:01.945Z,10.55
2022-12-25T20:28:29.024Z,9.50
2022-12-25T20:30:56.439Z,9.63
2022-12-25T20:33:23.516Z,6.60
2022-12-25T20:35:50.921Z,6.45
2022-12-25T20:38:17.422Z,7.18
2022-12-25T20:41:24.440Z,6.65
2022-12-25T20:43:30.919Z,7.28
2022-12-25T20:45:57.869Z,7.55
2022-12-25T20:48:24.811Z,7.60
2022-12-25T20:50:52.087Z,5.85
2022-12-25T20:53:19.676Z,9.77
2022-12-25T20:55:47.272Z,8.25
2022-12-25T20:58:15.363Z,10.10
2022-12-25T21:00:43.592Z,8.95
2022-12-25T21:03:12.071Z,8.55
2022-12-25T21:05:49.790Z,9.48
2022-12-25T21:08:22.424Z,8.23
2022-12-25T21:10:52.464Z,8.65
2022-12-25T21:13:25.296Z,7.60
2022-12-25T21:15:52.727Z,10.18
2022-12-25T21:18:21.928Z,8.52
2022-12-25T21:23:17.637Z,8.40
2022-12-25T21:25:45.405Z,8.30
2022-12-25T21:28:12.579Z,6.88
2022-12-25T21:30:39.593Z,6.60
2022-12-25T21:33:24.844Z,7.45
2022-12-25T21:35:51.567Z,7.00
2022-12-25T21:38:18.151Z,7.22
2022-12-25T21:40:44.810Z,6.47
2022-12-25T21:43:14.276Z,13.00
2022-12-25T21:45:40.952Z,7.85
2022-12-25T21:48:07.726Z,10.25
2022-12-25T21:50:53.089Z,9.35
2022-12-25T21:53:20.786Z,7.80
2022-12-25T21:56:05.786Z,8.55
2022-12-25T21:58:32.399Z,9.48
2022-12-25T22:01:05.435Z,7.88
2022-12-25T22:03:32.091Z,8.38
2022-12-25T22:06:21.453Z,6.95
2022-12-25T22:08:48.649Z,7.18
2022-12-25T22:11:33.724Z,5.65
2022-12-25T22:14:18.935Z,7.25
2022-12-25T22:17:24.697Z,5.65
2022-12-25T22:19:51.329Z,4.85
2022-12-25T22:22:24.238Z,5.85
2022-12-25T22:24:52.726Z,6.10
2022-12-25T22:27:19.478Z,4.05
2022-12-25T22:29:46.251Z,6.00
2022-12-25T22:32:13.952Z,5.55
2022-12-25T22:34:40.897Z,6.05
2022-12-25T22:37:10.437Z,4.80
2022-12-25T22:39:37.082Z,6.07
2022-12-25T22:42:03.651Z,5.45
2022-12-25T22:44:31.559Z,5.88
2022-12-25T22:46:58.354Z,4.97
2022-12-25T22:49:25.870Z,4.95
2022-12-25T22:51:53.166Z,5.38
2022-12-25T22:54:21.673Z,5.95
2022-12-25T22:56:51.588Z,4.40
2022-12-25T22:59:20.235Z,4.35
2022-12-25T23:01:46.848Z,3.88
2022-12-25T23:04:13.430Z,3.85
2022-12-25T23:06:40.239Z,4.38
2022-12-25T23:09:08.317Z,4.45
2022-12-25T23:11:36.197Z,4.07
2022-12-25T23:14:21.359Z,3.97
2022-12-25T23:16:47.955Z,5.85
2022-12-25T23:19:32.915Z,5.88
2022-12-25T23:22:28.521Z,6.50
2022-12-25T23:25:13.819Z,5.30
2022-12-25T23:27:40.652Z,6.22
2022-12-25T23:30:11.975Z,5.85
2022-12-25T23:32:38.789Z,5.80
2022-12-25T23:35:05.829Z,4.78
2022-12-25T23:37:32.297Z,8.07
2022-12-25T23:39:58.780Z,5.22
2022-12-25T23:42:25.350Z,4.18
2022-12-25T23:44:51.865Z,3.92
2022-12-25T23:47:18.372Z,4.75
2022-12-25T23:49:44.834Z,3.78
2022-12-25T23:52:12.929Z,5.47
2022-12-25T23:54:39.507Z,4.88
2022-12-25T23:57:06.061Z,7.32
2022-12-25T23:59:32.588Z,5.22
